sensor_id;sensor_type;location;lat;lon;timestamp;pressure;altitude;pressure_sealevel;temperature;humidity
14612;BME280;7392;52.078;11.650;2022-12-16T00:01:22;100350.22;;;-11.07;100.00
14612;BME280;7392;52.078;11.650;2022-12-16T00:03:53;100356.16;;;-11.08;100.00
14612;BME280;7392;52.078;11.650;2022-12-16T00:06:22;100364.63;;;-11.09;100.00
14612;BME280;7392;52.078;11.650;2022-12-16T00:08:51;100372.31;;;-11.09;100.00
14612;BME280;7392;52.078;11.650;2022-12-16T00:11:20;100362.72;;;-11.12;100.00
14612;BME280;7392;52.078;11.650;2022-12-16T00:13:48;100371.31;;;-11.11;100.00
14612;BME280;7392;52.078;11.650;2022-12-16T00:16:19;100365.94;;;-11.14;100.00
14612;BME280;7392;52.078;11.650;2022-12-16T00:18:48;100369.28;;;-11.15;100.00
14612;BME280;7392;52.078;11.650;2022-12-16T00:21:19;100381.19;;;-11.16;100.00
14612;BME280;7392;52.078;11.650;2022-12-16T00:23:47;100374.19;;;-11.18;100.00
14612;BME280;7392;52.078;11.650;2022-12-16T00:26:15;100380.97;;;-11.19;100.00
14612;BME280;7392;52.078;11.650;2022-12-16T00:28:43;100388.53;;;-11.20;100.00
14612;BME280;7392;52.078;11.650;2022-12-16T00:31:10;100397.91;;;-11.21;100.00
14612;BME280;7392;52.078;11.650;2022-12-16T00:33:38;100382.50;;;-11.21;100.00
14612;BME280;7392;52.078;11.650;2022-12-16T00:36:07;100385.75;;;-11.23;100.00
14612;BME280;7392;52.078;11.650;2022-12-16T00:38:36;100394.19;;;-11.24;100.00
14612;BME280;7392;52.078;11.650;2022-12-16T00:41:05;100385.63;;;-11.25;100.00
14612;BME280;7392;52.078;11.650;2022-12-16T00:43:33;100394.88;;;-11.27;100.00
14612;BME280;7392;52.078;11.650;2022-12-16T00:46:01;100397.44;;;-11.27;100.00
14612;BME280;7392;52.078;11.650;2022-12-16T00:48:29;100396.41;;;-11.29;100.00
14612;BME280;7392;52.078;11.650;2022-12-16T00:50:57;100390.38;;;-11.30;100.00
14612;BME280;7392;52.078;11.650;2022-12-16T00:53:25;100395.50;;;-11.30;100.00
14612;BME280;7392;52.078;11.650;2022-12-16T00:56:05;100394.50;;;-11.32;100.00
14612;BME280;7392;52.078;11.650;2022-12-16T00:58:34;100396.19;;;-11.32;100.00
14612;BME280;7392;52.078;11.650;2022-12-16T01:01:03;100391.56;;;-11.36;100.00
14612;BME280;7392;52.078;11.650;2022-12-16T01:03:31;100387.09;;;-11.39;100.00
14612;BME280;7392;52.078;11.650;2022-12-16T01:05:59;100400.69;;;-11.40;100.00
14612;BME280;7392;52.078;11.650;2022-12-16T01:08:27;100396.31;;;-11.41;100.00
14612;BME280;7392;52.078;11.650;2022-12-16T01:10:56;100397.88;;;-11.43;100.00
14612;BME280;7392;52.078;11.650;2022-12-16T01:13:25;100396.09;;;-11.44;100.00
14612;BME280;7392;52.078;11.650;2022-12-16T01:15:53;100389.94;;;-11.46;100.00
14612;BME280;7392;52.078;11.650;2022-12-16T01:18:20;100393.41;;;-11.45;100.00
14612;BME280;7392;52.078;11.650;2022-12-16T01:20:48;100404.44;;;-11.47;100.00
14612;BME280;7392;52.078;11.650;2022-12-16T01:23:17;100400.84;;;-11.49;100.00
14612;BME280;7392;52.078;11.650;2022-12-16T01:25:48;100405.84;;;-11.50;100.00
14612;BME280;7392;52.078;11.650;2022-12-16T01:28:17;100415.34;;;-11.49;100.00
14612;BME280;7392;52.078;11.650;2022-12-16T01:30:46;100412.00;;;-11.48;100.00
14612;BME280;7392;52.078;11.650;2022-12-16T01:33:14;100406.53;;;-11.53;100.00
14612;BME280;7392;52.078;11.650;2022-12-16T01:35:43;100404.59;;;-11.55;100.00
14612;BME280;7392;52.078;11.650;2022-12-16T01:38:21;100404.47;;;-11.57;100.00
14612;BME280;7392;52.078;11.650;2022-12-16T01:40:49;100404.22;;;-11.60;100.00
14612;BME280;7392;52.078;11.650;2022-12-16T01:43:17;100401.53;;;-11.61;100.00
14612;BME280;7392;52.078;11.650;2022-12-16T01:45:49;100404.00;;;-11.63;100.00
14612;BME280;7392;52.078;11.650;2022-12-16T01:48:21;100400.50;;;-11.63;100.00
14612;BME280;7392;52.078;11.650;2022-12-16T01:50:56;100398.63;;;-11.66;100.00
14612;BME280;7392;52.078;11.650;2022-12-16T01:53:27;100395.94;;;-11.68;100.00
14612;BME280;7392;52.078;11.650;2022-12-16T01:55:55;100394.13;;;-11.69;100.00
14612;BME280;7392;52.078;11.650;2022-12-16T01:58:26;100391.56;;;-11.69;100.00
14612;BME280;7392;52.078;11.650;2022-12-16T02:00:58;100393.25;;;-11.69;100.00
14612;BME280;7392;52.078;11.650;2022-12-16T02:03:28;100392.34;;;-11.70;100.00
14612;BME280;7392;52.078;11.650;2022-12-16T02:05:58;100386.31;;;-11.70;100.00
14612;BME280;7392;52.078;11.650;2022-12-16T02:08:27;100394.78;;;-11.71;100.00
14612;BME280;7392;52.078;11.650;2022-12-16T02:11:11;100389.66;;;-11.71;100.00
14612;BME280;7392;52.078;11.650;2022-12-16T02:13:57;100393.53;;;-11.76;100.00
14612;BME280;7392;52.078;11.650;2022-12-16T02:16:35;100386.34;;;-11.80;100.00
14612;BME280;7392;52.078;11.650;2022-12-16T02:19:16;100392.25;;;-11.81;100.00
14612;BME280;7392;52.078;11.650;2022-12-16T02:21:55;100381.75;;;-11.85;100.00
14612;BME280;7392;52.078;11.650;2022-12-16T02:24:49;100396.25;;;-11.85;100.00
14612;BME280;7392;52.078;11.650;2022-12-16T02:27:44;100384.81;;;-11.89;100.00
14612;BME280;7392;52.078;11.650;2022-12-16T02:30:37;100394.19;;;-11.89;100.00
14612;BME280;7392;52.078;11.650;2022-12-16T02:33:16;100382.16;;;-11.90;100.00
14612;BME280;7392;52.078;11.650;2022-12-16T02:35:52;100387.06;;;-11.93;100.00
14612;BME280;7392;52.078;11.650;2022-12-16T02:38:27;100400.00;;;-11.92;100.00
14612;BME280;7392;52.078;11.650;2022-12-16T02:41:00;100394.63;;;-11.95;100.00
14612;BME280;7392;52.078;11.650;2022-12-16T02:43:47;100393.63;;;-11.97;100.00
14612;BME280;7392;52.078;11.650;2022-12-16T02:46:21;100396.66;;;-12.01;100.00
14612;BME280;7392;52.078;11.650;2022-12-16T02:48:50;100389.66;;;-12.03;100.00
14612;BME280;7392;52.078;11.650;2022-12-16T02:51:20;100386.06;;;-12.06;100.00
14612;BME280;7392;52.078;11.650;2022-12-16T02:53:51;100383.38;;;-12.07;100.00
14612;BME280;7392;52.078;11.650;2022-12-16T02:56:37;100385.03;;;-12.08;100.00
14612;BME280;7392;52.078;11.650;2022-12-16T02:59:16;100379.91;;;-12.08;100.00
14612;BME280;7392;52.078;11.650;2022-12-16T03:01:53;100381.44;;;-12.10;100.00
14612;BME280;7392;52.078;11.650;2022-12-16T03:04:27;100387.38;;;-12.11;100.00
14612;BME280;7392;52.078;11.650;2022-12-16T03:06:59;100382.88;;;-12.13;100.00
14612;BME280;7392;52.078;11.650;2022-12-16T03:09:31;100388.88;;;-12.13;100.00
14612;BME280;7392;52.078;11.650;2022-12-16T03:12:03;100387.25;;;-12.12;100.00
14612;BME280;7392;52.078;11.650;2022-12-16T03:14:34;100382.13;;;-12.12;100.00
14612;BME280;7392;52.078;11.650;2022-12-16T03:17:07;100381.19;;;-12.13;100.00
14612;BME280;7392;52.078;11.650;2022-12-16T03:19:37;100382.75;;;-12.15;100.00
14612;BME280;7392;52.078;11.650;2022-12-16T03:22:11;100383.63;;;-12.14;100.00
14612;BME280;7392;52.078;11.650;2022-12-16T03:24:39;100379.16;;;-12.17;100.00
14612;BME280;7392;52.078;11.650;2022-12-16T03:27:11;100387.72;;;-12.16;100.00
14612;BME280;7392;52.078;11.650;2022-12-16T03:29:48;100376.59;;;-12.17;100.00
14612;BME280;7392;52.078;11.650;2022-12-16T03:32:22;100379.78;;;-12.19;100.00
14612;BME280;7392;52.078;11.650;2022-12-16T03:34:57;100389.16;;;-12.20;100.00
14612;BME280;7392;52.078;11.650;2022-12-16T03:37:28;100380.44;;;-12.22;100.00
14612;BME280;7392;52.078;11.650;2022-12-16T03:40:00;100378.78;;;-12.21;100.00
14612;BME280;7392;52.078;11.650;2022-12-16T03:42:30;100386.34;;;-12.23;100.00
14612;BME280;7392;52.078;11.650;2022-12-16T03:44:58;100394.81;;;-12.24;100.00
14612;BME280;7392;52.078;11.650;2022-12-16T03:47:28;100386.88;;;-12.27;100.00
14612;BME280;7392;52.078;11.650;2022-12-16T03:49:56;100383.28;;;-12.29;100.00
14612;BME280;7392;52.078;11.650;2022-12-16T03:52:23;100393.41;;;-12.31;100.00
14612;BME280;7392;52.078;11.650;2022-12-16T03:54:51;100387.25;;;-12.33;100.00
14612;BME280;7392;52.078;11.650;2022-12-16T03:57:19;100388.00;;;-12.34;100.00
14612;BME280;7392;52.078;11.650;2022-12-16T03:59:47;100391.34;;;-12.35;100.00
14612;BME280;7392;52.078;11.650;2022-12-16T04:02:15;100386.88;;;-12.37;100.00
14612;BME280;7392;52.078;11.650;2022-12-16T04:04:44;100380.88;;;-12.38;100.00
14612;BME280;7392;52.078;11.650;2022-12-16T04:07:12;100387.63;;;-12.38;100.00
14612;BME280;7392;52.078;11.650;2022-12-16T04:09:47;100395.31;;;-12.38;100.00
14612;BME280;7392;52.078;11.650;2022-12-16T04:12:15;100399.41;;;-12.40;100.00
14612;BME280;7392;52.078;11.650;2022-12-16T04:15:00;100406.97;;;-12.42;100.00
14612;BME280;7392;52.078;11.650;2022-12-16T04:17:45;100406.69;;;-12.45;100.00
14612;BME280;7392;52.078;11.650;2022-12-16T04:20:34;100407.50;;;-12.46;100.00
14612;BME280;7392;52.078;11.650;2022-12-16T04:23:21;100409.91;;;-12.48;100.00
14612;BME280;7392;52.078;11.650;2022-12-16T04:26:08;100411.31;;;-12.51;100.00
14612;BME280;7392;52.078;11.650;2022-12-16T04:28:36;100411.19;;;-12.53;100.00
14612;BME280;7392;52.078;11.650;2022-12-16T04:31:05;100414.63;;;-12.52;100.00
14612;BME280;7392;52.078;11.650;2022-12-16T04:33:33;100409.25;;;-12.55;100.00
14612;BME280;7392;52.078;11.650;2022-12-16T04:36:19;100405.94;;;-12.54;100.00
14612;BME280;7392;52.078;11.650;2022-12-16T04:39:04;100417.97;;;-12.53;100.00
14612;BME280;7392;52.078;11.650;2022-12-16T04:41:51;100414.63;;;-12.52;100.00
14612;BME280;7392;52.078;11.650;2022-12-16T04:44:37;100410.31;;;-12.53;100.00
14612;BME280;7392;52.078;11.650;2022-12-16T04:47:23;100411.94;;;-12.54;100.00
14612;BME280;7392;52.078;11.650;2022-12-16T04:50:08;100413.63;;;-12.54;100.00
14612;BME280;7392;52.078;11.650;2022-12-16T04:52:55;100411.81;;;-12.55;100.00
14612;BME280;7392;52.078;11.650;2022-12-16T04:55:40;100415.28;;;-12.55;100.00
14612;BME280;7392;52.078;11.650;2022-12-16T04:58:29;100429.88;;;-12.54;100.00
14612;BME280;7392;52.078;11.650;2022-12-16T05:01:26;100423.84;;;-12.54;100.00
14612;BME280;7392;52.078;11.650;2022-12-16T05:04:11;100421.16;;;-12.56;100.00
14612;BME280;7392;52.078;11.650;2022-12-16T05:06:57;100422.06;;;-12.55;100.00
14612;BME280;7392;52.078;11.650;2022-12-16T05:09:43;100427.03;;;-12.57;100.00
14612;BME280;7392;52.078;11.650;2022-12-16T05:12:29;100431.28;;;-12.57;100.00
14612;BME280;7392;52.078;11.650;2022-12-16T05:15:15;100433.69;;;-12.59;100.00
14612;BME280;7392;52.078;11.650;2022-12-16T05:18:07;100440.63;;;-12.58;100.00
14612;BME280;7392;52.078;11.650;2022-12-16T05:20:52;100437.94;;;-12.59;100.00
14612;BME280;7392;52.078;11.650;2022-12-16T05:23:38;100444.84;;;-12.58;100.00
14612;BME280;7392;52.078;11.650;2022-12-16T05:26:24;100443.94;;;-12.59;100.00
14612;BME280;7392;52.078;11.650;2022-12-16T05:29:09;100446.38;;;-12.61;100.00
14612;BME280;7392;52.078;11.650;2022-12-16T05:31:55;100448.91;;;-12.61;100.00
14612;BME280;7392;52.078;11.650;2022-12-16T05:34:40;100453.16;;;-12.61;100.00
14612;BME280;7392;52.078;11.650;2022-12-16T05:37:25;100458.28;;;-12.61;100.00
14612;BME280;7392;52.078;11.650;2022-12-16T05:40:11;100458.28;;;-12.61;100.00
14612;BME280;7392;52.078;11.650;2022-12-16T05:42:58;100465.06;;;-12.62;100.00
14612;BME280;7392;52.078;11.650;2022-12-16T05:45:43;100477.06;;;-12.61;100.00
14612;BME280;7392;52.078;11.650;2022-12-16T05:48:28;100475.31;;;-12.62;100.00
14612;BME280;7392;52.078;11.650;2022-12-16T05:51:13;100482.19;;;-12.61;100.00
14612;BME280;7392;52.078;11.650;2022-12-16T05:53:59;100486.28;;;-12.63;100.00
14612;BME280;7392;52.078;11.650;2022-12-16T05:56:44;100487.09;;;-12.64;100.00
14612;BME280;7392;52.078;11.650;2022-12-16T05:59:31;100489.63;;;-12.64;100.00
14612;BME280;7392;52.078;11.650;2022-12-16T06:02:16;100502.31;;;-12.65;100.00
14612;BME280;7392;52.078;11.650;2022-12-16T06:05:02;100492.69;;;-12.68;100.00
14612;BME280;7392;52.078;11.650;2022-12-16T06:07:49;100503.69;;;-12.69;100.00
14612;BME280;7392;52.078;11.650;2022-12-16T06:10:35;100502.78;;;-12.69;100.00
14612;BME280;7392;52.078;11.650;2022-12-16T06:13:20;100494.22;;;-12.70;100.00
14612;BME280;7392;52.078;11.650;2022-12-16T06:16:08;100502.78;;;-12.69;100.00
14612;BME280;7392;52.078;11.650;2022-12-16T06:19:08;100507.91;;;-12.69;100.00
14612;BME280;7392;52.078;11.650;2022-12-16T06:21:53;100510.47;;;-12.69;100.00
14612;BME280;7392;52.078;11.650;2022-12-16T06:24:38;100503.69;;;-12.69;100.00
14612;BME280;7392;52.078;11.650;2022-12-16T06:27:23;100516.38;;;-12.70;100.00
14612;BME280;7392;52.078;11.650;2022-12-16T06:30:10;100519.81;;;-12.70;100.00
14612;BME280;7392;52.078;11.650;2022-12-16T06:32:56;100525.81;;;-12.69;100.00
14612;BME280;7392;52.078;11.650;2022-12-16T06:35:42;100536.06;;;-12.69;100.00
14612;BME280;7392;52.078;11.650;2022-12-16T06:38:27;100536.97;;;-12.69;100.00
14612;BME280;7392;52.078;11.650;2022-12-16T06:41:12;100542.19;;;-12.67;100.00
14612;BME280;7392;52.078;11.650;2022-12-16T06:44:03;100540.41;;;-12.68;100.00
14612;BME280;7392;52.078;11.650;2022-12-16T06:46:48;100552.31;;;-12.69;100.00
14612;BME280;7392;52.078;11.650;2022-12-16T06:49:35;100552.31;;;-12.69;100.00
14612;BME280;7392;52.078;11.650;2022-12-16T06:52:20;100560.09;;;-12.67;100.00
14612;BME280;7392;52.078;11.650;2022-12-16T06:55:06;100558.59;;;-12.65;100.00
14612;BME280;7392;52.078;11.650;2022-12-16T06:57:56;100559.63;;;-12.63;100.00
14612;BME280;7392;52.078;11.650;2022-12-16T07:00:41;100562.19;;;-12.63;100.00
14612;BME280;7392;52.078;11.650;2022-12-16T07:03:26;100580.38;;;-12.60;100.00
14612;BME280;7392;52.078;11.650;2022-12-16T07:06:13;100576.16;;;-12.59;100.00
14612;BME280;7392;52.078;11.650;2022-12-16T07:08:58;100576.41;;;-12.56;100.00
14612;BME280;7392;52.078;11.650;2022-12-16T07:11:44;100582.69;;;-12.53;100.00
14612;BME280;7392;52.078;11.650;2022-12-16T07:14:29;100591.53;;;-12.49;100.00
14612;BME280;7392;52.078;11.650;2022-12-16T07:17:14;100591.03;;;-12.45;100.00
14612;BME280;7392;52.078;11.650;2022-12-16T07:19:59;100587.84;;;-12.43;100.00
14612;BME280;7392;52.078;11.650;2022-12-16T07:22:46;100598.50;;;-12.38;100.00
14612;BME280;7392;52.078;11.650;2022-12-16T07:25:38;100597.22;;;-12.33;100.00
14612;BME280;7392;52.078;11.650;2022-12-16T07:28:24;100602.72;;;-12.28;100.00
14612;BME280;7392;52.078;11.650;2022-12-16T07:31:09;100607.50;;;-12.23;100.00
14612;BME280;7392;52.078;11.650;2022-12-16T07:33:54;100608.78;;;-12.17;100.00
14612;BME280;7392;52.078;11.650;2022-12-16T07:36:40;100614.41;;;-12.11;100.00
14612;BME280;7392;52.078;11.650;2022-12-16T07:39:26;100627.13;;;-12.02;100.00
14612;BME280;7392;52.078;11.650;2022-12-16T07:42:20;100637.00;;;-11.97;100.00
14612;BME280;7392;52.078;11.650;2022-12-16T07:45:06;100646.09;;;-11.90;100.00
14612;BME280;7392;52.078;11.650;2022-12-16T07:47:51;100629.31;;;-11.87;100.00
14612;BME280;7392;52.078;11.650;2022-12-16T07:50:37;100642.00;;;-11.78;100.00
14612;BME280;7392;52.078;11.650;2022-12-16T07:53:24;100646.72;;;-11.72;100.00
14612;BME280;7392;52.078;11.650;2022-12-16T07:56:11;100652.66;;;-11.63;100.00
14612;BME280;7392;52.078;11.650;2022-12-16T07:58:57;100651.59;;;-11.55;100.00
14612;BME280;7392;52.078;11.650;2022-12-16T08:01:42;100657.41;;;-11.47;100.00
14612;BME280;7392;52.078;11.650;2022-12-16T08:04:28;100667.25;;;-11.41;100.00
14612;BME280;7392;52.078;11.650;2022-12-16T08:07:13;100673.19;;;-11.32;100.00
14612;BME280;7392;52.078;11.650;2022-12-16T08:09:58;100682.25;;;-11.25;100.00
14612;BME280;7392;52.078;11.650;2022-12-16T08:12:45;100678.78;;;-11.16;100.00
14612;BME280;7392;52.078;11.650;2022-12-16T08:15:30;100677.75;;;-11.07;100.00
14612;BME280;7392;52.078;11.650;2022-12-16T08:18:15;100686.22;;;-10.98;100.00
14612;BME280;7392;52.078;11.650;2022-12-16T08:21:01;100694.81;;;-10.87;100.00
14612;BME280;7392;52.078;11.650;2022-12-16T08:23:46;100692.84;;;-10.80;100.00
14612;BME280;7392;52.078;11.650;2022-12-16T08:26:31;100701.56;;;-10.67;100.00
14612;BME280;7392;52.078;11.650;2022-12-16T08:29:18;100698.88;;;-10.59;100.00
14612;BME280;7392;52.078;11.650;2022-12-16T08:32:11;100703.31;;;-10.46;100.00
14612;BME280;7392;52.078;11.650;2022-12-16T08:34:56;100694.56;;;-10.38;100.00
14612;BME280;7392;52.078;11.650;2022-12-16T08:37:42;100701.44;;;-10.26;100.00
14612;BME280;7392;52.078;11.650;2022-12-16T08:40:27;100706.53;;;-10.16;100.00
14612;BME280;7392;52.078;11.650;2022-12-16T08:43:24;100709.03;;;-10.06;100.00
14612;BME280;7392;52.078;11.650;2022-12-16T08:46:10;100705.63;;;-9.94;100.00
14612;BME280;7392;52.078;11.650;2022-12-16T08:48:56;100699.66;;;-9.83;100.00
14612;BME280;7392;52.078;11.650;2022-12-16T08:51:46;100699.63;;;-9.73;100.00
14612;BME280;7392;52.078;11.650;2022-12-16T08:54:31;100703.00;;;-9.62;100.00
14612;BME280;7392;52.078;11.650;2022-12-16T08:57:17;100705.50;;;-9.52;100.00
14612;BME280;7392;52.078;11.650;2022-12-16T09:00:03;100714.84;;;-9.42;100.00
14612;BME280;7392;52.078;11.650;2022-12-16T09:02:53;100715.66;;;-9.31;100.00
14612;BME280;7392;52.078;11.650;2022-12-16T09:05:39;100719.97;;;-9.20;100.00
14612;BME280;7392;52.078;11.650;2022-12-16T09:08:25;100719.06;;;-9.09;100.00
14612;BME280;7392;52.078;11.650;2022-12-16T09:11:10;100715.06;;;-8.93;100.00
14612;BME280;7392;52.078;11.650;2022-12-16T09:13:55;100721.28;;;-8.79;100.00
14612;BME280;7392;52.078;11.650;2022-12-16T09:16:40;100716.25;;;-8.66;100.00
14612;BME280;7392;52.078;11.650;2022-12-16T09:19:27;100717.38;;;-8.51;100.00
14612;BME280;7392;52.078;11.650;2022-12-16T09:22:12;100720.84;;;-8.38;100.00
14612;BME280;7392;52.078;11.650;2022-12-16T09:24:57;100722.59;;;-8.25;100.00
14612;BME280;7392;52.078;11.650;2022-12-16T09:27:42;100725.19;;;-8.14;100.00
14612;BME280;7392;52.078;11.650;2022-12-16T09:30:27;100731.22;;;-8.01;100.00
14612;BME280;7392;52.078;11.650;2022-12-16T09:33:12;100736.47;;;-7.88;100.00
14612;BME280;7392;52.078;11.650;2022-12-16T09:36:00;100730.50;;;-7.75;100.00
14612;BME280;7392;52.078;11.650;2022-12-16T09:38:45;100730.47;;;-7.63;100.00
14612;BME280;7392;52.078;11.650;2022-12-16T09:41:40;100738.38;;;-7.48;100.00
14612;BME280;7392;52.078;11.650;2022-12-16T09:44:36;100747.88;;;-7.36;100.00
14612;BME280;7392;52.078;11.650;2022-12-16T09:47:30;100740.88;;;-7.25;100.00
14612;BME280;7392;52.078;11.650;2022-12-16T09:50:22;100736.44;;;-7.14;100.00
14612;BME280;7392;52.078;11.650;2022-12-16T09:53:12;100746.69;;;-7.02;100.00
14612;BME280;7392;52.078;11.650;2022-12-16T09:56:00;100748.13;;;-6.94;100.00
14612;BME280;7392;52.078;11.650;2022-12-16T09:58:51;100747.28;;;-6.81;100.00
14612;BME280;7392;52.078;11.650;2022-12-16T10:01:38;100750.69;;;-6.69;100.00
14612;BME280;7392;52.078;11.650;2022-12-16T10:04:25;100754.97;;;-6.56;100.00
14612;BME280;7392;52.078;11.650;2022-12-16T10:07:16;100749.72;;;-6.44;100.00
14612;BME280;7392;52.078;11.650;2022-12-16T10:10:15;100748.84;;;-6.31;100.00
14612;BME280;7392;52.078;11.650;2022-12-16T10:13:05;100748.66;;;-6.21;100.00
14612;BME280;7392;52.078;11.650;2022-12-16T10:15:58;100745.03;;;-6.10;100.00
14612;BME280;7392;52.078;11.650;2022-12-16T10:18:53;100744.78;;;-6.01;100.00
14612;BME280;7392;52.078;11.650;2022-12-16T10:21:52;100758.34;;;-5.90;100.00
14612;BME280;7392;52.078;11.650;2022-12-16T10:24:50;100752.97;;;-5.80;100.00
14612;BME280;7392;52.078;11.650;2022-12-16T10:27:42;100757.03;;;-5.70;100.00
14612;BME280;7392;52.078;11.650;2022-12-16T10:30:29;100750.72;;;-5.60;100.00
14612;BME280;7392;52.078;11.650;2022-12-16T10:33:15;100747.91;;;-5.50;100.00
14612;BME280;7392;52.078;11.650;2022-12-16T10:36:02;100756.38;;;-5.39;100.00
14612;BME280;7392;52.078;11.650;2022-12-16T10:38:50;100756.81;;;-5.32;100.00
14612;BME280;7392;52.078;11.650;2022-12-16T10:41:39;100753.22;;;-5.20;100.00
14612;BME280;7392;52.078;11.650;2022-12-16T10:44:32;100757.16;;;-5.12;100.00
14612;BME280;7392;52.078;11.650;2022-12-16T10:47:21;100759.41;;;-5.03;100.00
14612;BME280;7392;52.078;11.650;2022-12-16T10:50:11;100748.53;;;-4.98;100.00
14612;BME280;7392;52.078;11.650;2022-12-16T10:52:59;100755.06;;;-4.90;100.00
14612;BME280;7392;52.078;11.650;2022-12-16T10:55:54;100761.41;;;-4.84;100.00
14612;BME280;7392;52.078;11.650;2022-12-16T10:58:46;100760.09;;;-4.78;100.00
14612;BME280;7392;52.078;11.650;2022-12-16T11:01:37;100751.88;;;-4.71;100.00
14612;BME280;7392;52.078;11.650;2022-12-16T11:04:31;100756.69;;;-4.62;100.00
14612;BME280;7392;52.078;11.650;2022-12-16T11:07:26;100748.47;;;-4.55;100.00
14612;BME280;7392;52.078;11.650;2022-12-16T11:10:27;100756.72;;;-4.47;100.00
14612;BME280;7392;52.078;11.650;2022-12-16T11:13:19;100756.16;;;-4.41;100.00
14612;BME280;7392;52.078;11.650;2022-12-16T11:16:10;100752.22;;;-4.35;100.00
14612;BME280;7392;52.078;11.650;2022-12-16T11:18:58;100755.28;;;-4.27;100.00
14612;BME280;7392;52.078;11.650;2022-12-16T11:21:44;100761.69;;;-4.20;100.00
14612;BME280;7392;52.078;11.650;2022-12-16T11:24:30;100757.75;;;-4.14;100.00
14612;BME280;7392;52.078;11.650;2022-12-16T11:27:22;100756.50;;;-4.05;100.00
14612;BME280;7392;52.078;11.650;2022-12-16T11:30:17;100758.63;;;-3.98;100.00
14612;BME280;7392;52.078;11.650;2022-12-16T11:33:10;100759.84;;;-3.91;100.00
14612;BME280;7392;52.078;11.650;2022-12-16T11:36:08;100749.84;;;-3.85;100.00
14612;BME280;7392;52.078;11.650;2022-12-16T11:38:54;100762.25;;;-3.80;100.00
14612;BME280;7392;52.078;11.650;2022-12-16T11:41:41;100766.81;;;-3.76;100.00
14612;BME280;7392;52.078;11.650;2022-12-16T11:44:29;100767.06;;;-3.71;100.00
14612;BME280;7392;52.078;11.650;2022-12-16T11:47:22;100768.19;;;-3.66;100.00
14612;BME280;7392;52.078;11.650;2022-12-16T11:50:13;100769.34;;;-3.61;100.00
14612;BME280;7392;52.078;11.650;2022-12-16T11:53:03;100772.94;;;-3.59;100.00
14612;BME280;7392;52.078;11.650;2022-12-16T11:55:54;100773.09;;;-3.55;100.00
14612;BME280;7392;52.078;11.650;2022-12-16T11:58:45;100771.56;;;-3.52;100.00
14612;BME280;7392;52.078;11.650;2022-12-16T12:01:33;100777.91;;;-3.47;100.00
14612;BME280;7392;52.078;11.650;2022-12-16T12:04:21;100777.19;;;-3.44;100.00
14612;BME280;7392;52.078;11.650;2022-12-16T12:07:24;100791.31;;;-3.39;100.00
14612;BME280;7392;52.078;11.650;2022-12-16T12:10:45;100784.50;;;-3.37;100.00
14612;BME280;7392;52.078;11.650;2022-12-16T12:13:45;100791.66;;;-3.33;100.00
14612;BME280;7392;52.078;11.650;2022-12-16T12:16:40;100793.53;;;-3.30;100.00
14612;BME280;7392;52.078;11.650;2022-12-16T12:19:35;100791.09;;;-3.27;100.00
14612;BME280;7392;52.078;11.650;2022-12-16T12:22:32;100785.16;;;-3.25;100.00
14612;BME280;7392;52.078;11.650;2022-12-16T12:25:23;100792.25;;;-3.22;100.00
14612;BME280;7392;52.078;11.650;2022-12-16T12:28:24;100792.41;;;-3.19;100.00
14612;BME280;7392;52.078;11.650;2022-12-16T12:31:23;100791.75;;;-3.15;100.00
14612;BME280;7392;52.078;11.650;2022-12-16T12:34:17;100792.59;;;-3.16;100.00
14612;BME280;7392;52.078;11.650;2022-12-16T12:37:11;100790.03;;;-3.14;100.00
14612;BME280;7392;52.078;11.650;2022-12-16T12:40:13;100803.88;;;-3.15;100.00
14612;BME280;7392;52.078;11.650;2022-12-16T12:43:01;100797.84;;;-3.14;100.00
14612;BME280;7392;52.078;11.650;2022-12-16T12:45:58;100800.50;;;-3.13;100.00
14612;BME280;7392;52.078;11.650;2022-12-16T12:48:51;100800.50;;;-3.13;100.00
14612;BME280;7392;52.078;11.650;2022-12-16T12:51:48;100799.88;;;-3.09;100.00
14612;BME280;7392;52.078;11.650;2022-12-16T12:54:43;100803.28;;;-3.10;100.00
14612;BME280;7392;52.078;11.650;2022-12-16T12:57:32;100808.47;;;-3.10;100.00
14612;BME280;7392;52.078;11.650;2022-12-16T13:00:21;100821.56;;;-3.08;100.00
14612;BME280;7392;52.078;11.650;2022-12-16T13:03:14;100812.88;;;-3.09;100.00
14612;BME280;7392;52.078;11.650;2022-12-16T13:06:03;100825.97;;;-3.07;100.00
14612;BME280;7392;52.078;11.650;2022-12-16T13:08:54;100824.16;;;-3.08;100.00
14612;BME280;7392;52.078;11.650;2022-12-16T13:12:18;100832.84;;;-3.08;100.00
14612;BME280;7392;52.078;11.650;2022-12-16T13:15:05;100837.16;;;-3.08;100.00
14612;BME280;7392;52.078;11.650;2022-12-16T13:18:22;100840.56;;;-3.09;100.00
14612;BME280;7392;52.078;11.650;2022-12-16T13:24:19;100845.69;;;-3.11;100.00
14612;BME280;7392;52.078;11.650;2022-12-16T13:27:11;100839.50;;;-3.13;100.00
14612;BME280;7392;52.078;11.650;2022-12-16T13:30:02;100838.69;;;-3.12;100.00
14612;BME280;7392;52.078;11.650;2022-12-16T13:32:53;100851.59;;;-3.13;100.00
14612;BME280;7392;52.078;11.650;2022-12-16T13:35:52;100844.56;;;-3.16;100.00
14612;BME280;7392;52.078;11.650;2022-12-16T13:38:44;100845.34;;;-3.17;100.00
14612;BME280;7392;52.078;11.650;2022-12-16T13:41:50;100859.88;;;-3.21;100.00
14612;BME280;7392;52.078;11.650;2022-12-16T13:44:55;100873.69;;;-3.22;100.00
14612;BME280;7392;52.078;11.650;2022-12-16T13:47:59;100864.03;;;-3.24;100.00
14612;BME280;7392;52.078;11.650;2022-12-16T13:50:45;100867.34;;;-3.27;100.00
14612;BME280;7392;52.078;11.650;2022-12-16T13:53:37;100870.66;;;-3.29;100.00
14612;BME280;7392;52.078;11.650;2022-12-16T13:56:29;100875.69;;;-3.32;100.00
14612;BME280;7392;52.078;11.650;2022-12-16T13:59:20;100881.69;;;-3.33;100.00